Time;durP1;ratioP1;P1;durP2;ratioP2;P2;SDS_P1;SDS_P2;PMS_P1;PMS_P2;Temp;Humidity;BMP_temperature;BMP_pressure;BME280_temperature;BME280_humidity;BME280_pressure;Samples;Min_cycle;Max_cycle;Signal;HPM_P1;HPM_P2
2023/03/17 00:01:04;;;;;;;5.60;2.47;;;7.40;99.90;;;;;;5072956;28;20036;-88
2023/03/17 00:03:35;;;;;;;3.55;2.55;;;7.40;99.90;;;;;;5046699;28;20043;-87
2023/03/17 00:06:03;;;;;;;5.70;2.90;;;7.50;99.90;;;;;;5074420;28;20090;-88
2023/03/17 00:08:31;;;;;;;4.93;2.72;;;7.50;99.90;;;;;;5045973;28;20124;-88
2023/03/17 00:10:58;;;;;;;6.75;3.00;;;7.50;99.90;;;;;;5064782;28;20102;-87
2023/03/17 00:13:25;;;;;;;5.63;3.00;;;7.60;99.90;;;;;;5044603;28;20044;-87
2023/03/17 00:15:55;;;;;;;5.72;2.65;;;7.60;99.90;;;;;;5050503;28;20060;-88
2023/03/17 00:18:22;;;;;;;4.38;2.92;;;7.50;99.90;;;;;;5055059;28;20105;-86
2023/03/17 00:20:48;;;;;;;5.63;2.80;;;7.50;99.90;;;;;;5043540;28;20316;-87
2023/03/17 00:23:21;;;;;;;6.07;3.08;;;7.40;99.90;;;;;;5058523;28;20048;-87
2023/03/17 00:25:47;;;;;;;5.43;2.70;;;7.50;99.90;;;;;;5050313;28;20151;-87
2023/03/17 00:28:19;;;;;;;4.70;2.58;;;7.50;99.90;;;;;;5032237;28;20189;-87
2023/03/17 00:30:46;;;;;;;3.60;2.90;;;7.50;99.90;;;;;;5050815;28;20039;-87
2023/03/17 00:33:15;;;;;;;3.83;2.60;;;7.50;99.90;;;;;;5055403;28;20048;-89
2023/03/17 00:35:45;;;;;;;3.85;2.72;;;7.50;99.90;;;;;;5086507;28;20481;-88
2023/03/17 00:38:16;;;;;;;3.95;3.00;;;7.50;99.90;;;;;;5061506;28;20106;-88
2023/03/17 00:40:44;;;;;;;4.45;3.00;;;7.50;99.90;;;;;;5086508;28;20060;-88
2023/03/17 00:43:10;;;;;;;4.32;2.83;;;7.60;99.90;;;;;;5069910;28;20072;-88
2023/03/17 00:45:36;;;;;;;4.13;2.55;;;7.50;99.90;;;;;;5054321;28;20064;-89
2023/03/17 00:48:02;;;;;;;4.38;3.08;;;7.50;99.90;;;;;;5050714;28;20048;-88
2023/03/17 00:50:28;;;;;;;4.20;2.47;;;7.50;99.90;;;;;;5044469;28;20059;-87
2023/03/17 00:52:56;;;;;;;4.55;2.70;;;7.50;99.90;;;;;;5068046;28;20048;-87
2023/03/17 00:55:24;;;;;;;5.47;3.30;;;7.50;99.90;;;;;;5079009;28;20048;-88
2023/03/17 00:57:49;;;;;;;5.22;2.72;;;7.50;99.90;;;;;;5036465;28;20075;-89
2023/03/17 01:00:23;;;;;;;5.70;2.80;;;7.40;99.90;;;;;;5061323;28;20067;-88
2023/03/17 01:02:50;;;;;;;4.05;2.67;;;7.40;99.90;;;;;;5071136;28;20489;-88
2023/03/17 01:05:16;;;;;;;7.25;3.10;;;7.40;99.90;;;;;;5087713;28;20055;-87
2023/03/17 01:07:51;;;;;;;6.78;3.35;;;7.40;99.90;;;;;;5066997;28;20054;-88
2023/03/17 01:10:27;;;;;;;5.85;3.08;;;7.40;99.90;;;;;;5067415;28;20052;-89
2023/03/17 01:12:54;;;;;;;;;;;7.30;99.90;;;;;;5061608;28;20051;-87
2023/03/17 01:15:21;;;;;;;4.05;2.70;;;7.30;99.90;;;;;;5080978;28;19919;-88
2023/03/17 01:17:49;;;;;;;5.30;2.75;;;7.30;99.90;;;;;;5055993;28;20043;-88
2023/03/17 01:20:30;;;;;;;6.00;2.88;;;7.30;99.90;;;;;;5084491;28;20473;-89
2023/03/17 01:22:56;;;;;;;5.05;2.88;;;7.30;99.90;;;;;;5060394;28;20130;-88
2023/03/17 01:25:22;;;;;;;3.95;2.75;;;7.40;99.90;;;;;;5049066;28;20130;-88
2023/03/17 01:27:48;;;;;;;5.82;2.67;;;7.40;99.90;;;;;;5040910;28;20056;-87
2023/03/17 01:30:21;;;;;;;7.60;2.83;;;7.40;99.90;;;;;;5068805;28;20040;-88
2023/03/17 01:32:47;;;;;;;5.70;3.15;;;7.50;99.90;;;;;;5086438;28;20047;-88
2023/03/17 01:35:13;;;;;;;6.32;3.25;;;7.40;99.90;;;;;;5088955;28;20051;-89
2023/03/17 01:37:39;;;;;;;5.93;2.85;;;7.50;99.90;;;;;;5089616;28;20155;-88
2023/03/17 01:40:12;;;;;;;4.72;3.10;;;7.50;99.90;;;;;;5050316;28;20516;-88
2023/03/17 01:42:38;;;;;;;4.45;2.97;;;7.50;99.90;;;;;;5056184;28;20083;-88
2023/03/17 01:45:46;;;;;;;4.97;2.80;;;7.40;99.90;;;;;;5059727;28;20097;-88
2023/03/17 01:48:12;;;;;;;5.25;3.30;;;7.40;99.90;;;;;;5073453;28;21047;-88
2023/03/17 01:50:38;;;;;;;6.45;2.88;;;7.40;99.90;;;;;;5074976;28;20127;-88
2023/03/17 01:53:04;;;;;;;5.22;2.70;;;7.50;99.90;;;;;;5087230;28;20110;-88
2023/03/17 01:55:30;;;;;;;6.22;2.50;;;7.40;99.90;;;;;;5074728;28;20103;-88
2023/03/17 01:57:57;;;;;;;5.55;3.05;;;7.50;99.90;;;;;;5053547;28;20873;-88
2023/03/17 02:00:23;;;;;;;5.18;2.78;;;7.50;99.90;;;;;;5058125;28;20048;-88
2023/03/17 02:02:55;;;;;;;5.75;3.10;;;7.50;99.90;;;;;;5061426;28;20048;-88
2023/03/17 02:05:24;;;;;;;3.90;2.60;;;7.50;99.90;;;;;;5074262;28;20054;-88
2023/03/17 02:07:52;;;;;;;4.13;2.75;;;7.50;99.90;;;;;;5060052;28;20056;-88
2023/03/17 02:10:19;;;;;;;6.07;2.50;;;7.40;99.90;;;;;;5059038;28;20667;-88
2023/03/17 02:12:49;;;;;;;5.50;2.42;;;7.40;99.90;;;;;;5062640;28;20048;-88
2023/03/17 02:15:16;;;;;;;4.55;2.90;;;7.40;99.90;;;;;;5088802;28;20119;-88
2023/03/17 02:17:42;;;;;;;6.85;3.00;;;7.40;99.90;;;;;;5085128;28;20050;-88
2023/03/17 02:20:28;;;;;;;4.78;2.90;;;7.40;99.90;;;;;;5054554;28;20044;-87
2023/03/17 02:22:56;;;;;;;5.53;2.95;;;7.40;99.90;;;;;;5018787;28;20058;-88
2023/03/17 02:25:23;;;;;;;6.57;3.10;;;7.40;99.90;;;;;;5072367;28;20047;-88
2023/03/17 02:27:58;;;;;;;4.50;2.97;;;7.40;99.90;;;;;;5063460;28;20123;-88
2023/03/17 02:30:24;;;;;;;4.57;2.85;;;7.30;99.90;;;;;;5075505;28;20047;-88
2023/03/17 02:32:50;;;;;;;6.80;3.58;;;7.40;99.90;;;;;;5072902;28;20089;-88
2023/03/17 02:35:17;;;;;;;5.68;3.13;;;7.40;99.90;;;;;;5054439;28;20397;-87
2023/03/17 02:37:45;;;;;;;5.55;2.83;;;7.40;99.90;;;;;;5056924;28;20055;-88
2023/03/17 02:40:12;;;;;;;4.28;3.22;;;7.40;99.90;;;;;;5072185;28;20036;-88
2023/03/17 02:42:40;;;;;;;4.03;2.72;;;7.40;99.90;;;;;;5060163;28;20552;-88
2023/03/17 02:45:08;;;;;;;3.65;2.28;;;7.40;99.90;;;;;;5065200;28;20074;-89
2023/03/17 02:47:34;;;;;;;4.70;2.67;;;7.40;99.90;;;;;;5061072;28;20091;-88
2023/03/17 02:50:00;;;;;;;4.30;2.58;;;7.50;99.90;;;;;;5065932;28;20056;-89
2023/03/17 02:52:26;;;;;;;8.10;3.00;;;7.50;99.90;;;;;;5058758;28;20032;-88
2023/03/17 02:54:52;;;;;;;6.28;2.90;;;7.50;99.90;;;;;;5051199;28;20059;-88
2023/03/17 02:57:18;;;;;;;6.22;3.08;;;7.50;99.90;;;;;;5057067;28;20842;-89
2023/03/17 02:59:44;;;;;;;5.78;2.78;;;7.50;99.90;;;;;;5054053;28;20425;-89
2023/03/17 03:02:10;;;;;;;5.55;2.72;;;7.50;99.90;;;;;;5057722;28;20048;-88
2023/03/17 03:04:36;;;;;;;4.82;2.63;;;7.60;99.90;;;;;;5035035;28;20067;-90
2023/03/17 03:07:02;;;;;;;4.20;2.90;;;7.60;99.90;;;;;;5049797;28;20044;-89
2023/03/17 03:09:28;;;;;;;4.28;2.88;;;7.60;99.90;;;;;;5023340;28;20066;-89
2023/03/17 03:11:54;;;;;;;4.63;3.10;;;7.60;99.90;;;;;;5035038;28;20040;-88
2023/03/17 03:14:20;;;;;;;5.78;3.03;;;7.70;99.90;;;;;;5061291;28;20657;-89
2023/03/17 03:16:46;;;;;;;6.15;2.70;;;7.70;99.90;;;;;;5060601;28;20036;-88
2023/03/17 03:19:12;;;;;;;3.85;2.80;;;7.70;99.90;;;;;;5034770;28;20052;-89
2023/03/17 03:21:37;;;;;;;5.68;3.25;;;7.70;99.90;;;;;;5064873;28;20473;-87
2023/03/17 03:24:05;;;;;;;2.97;2.13;;;7.60;99.90;;;;;;5056288;28;20047;-87
2023/03/17 03:26:31;;;;;;;3.55;2.67;;;7.60;99.90;;;;;;5056894;28;20070;-89
2023/03/17 03:28:57;;;;;;;4.30;2.70;;;7.60;99.90;;;;;;5071022;28;20075;-88
2023/03/17 03:31:23;;;;;;;6.22;2.83;;;7.60;99.90;;;;;;5054889;28;20047;-89
2023/03/17 03:33:49;;;;;;;7.55;2.70;;;7.60;99.90;;;;;;5038848;28;20058;-89
2023/03/17 03:36:15;;;;;;;4.38;2.80;;;7.60;99.90;;;;;;5062739;28;20056;-89
2023/03/17 03:38:41;;;;;;;3.78;2.85;;;7.60;99.90;;;;;;5044400;28;20565;-88
2023/03/17 03:41:07;;;;;;;5.57;2.60;;;7.70;99.90;;;;;;5085299;28;20452;-89
2023/03/17 03:43:34;;;;;;;4.95;2.50;;;7.60;99.90;;;;;;5048647;28;20076;-89
2023/03/17 03:46:00;;;;;;;7.03;2.75;;;7.70;99.90;;;;;;5070755;28;20075;-88
2023/03/17 03:48:26;;;;;;;6.72;3.20;;;7.70;99.90;;;;;;5055420;28;20473;-88
2023/03/17 03:50:56;;;;;;;4.22;2.78;;;7.70;99.90;;;;;;5030347;28;20557;-88
2023/03/17 03:53:22;;;;;;;4.40;2.60;;;7.70;99.90;;;;;;5065732;28;20440;-88
2023/03/17 03:55:48;;;;;;;3.88;2.78;;;7.70;99.90;;;;;;5054083;28;20127;-88
2023/03/17 03:58:14;;;;;;;3.97;2.45;;;7.70;99.90;;;;;;5037883;28;20072;-88
2023/03/17 04:00:40;;;;;;;3.08;2.35;;;7.70;99.90;;;;;;5083184;28;20051;-89
2023/03/17 04:03:06;;;;;;;5.05;2.92;;;7.70;99.90;;;;;;5053995;28;20135;-88
2023/03/17 04:05:32;;;;;;;5.55;2.95;;;7.70;99.90;;;;;;5064297;28;20098;-88
2023/03/17 04:07:58;;;;;;;6.05;3.33;;;7.70;99.90;;;;;;5065749;28;20045;-88
2023/03/17 04:10:24;;;;;;;5.75;2.97;;;7.60;99.90;;;;;;5070818;28;20072;-89
2023/03/17 04:12:49;;;;;;;4.32;2.60;;;7.50;99.90;;;;;;5052855;28;20101;-88
2023/03/17 04:15:17;;;;;;;4.43;2.38;;;7.60;99.90;;;;;;5071862;28;20036;-88
2023/03/17 04:17:43;;;;;;;3.92;2.53;;;7.50;99.90;;;;;;5075683;28;20040;-88
2023/03/17 04:20:10;;;;;;;5.03;2.65;;;7.50;99.90;;;;;;5061989;28;20054;-88
2023/03/17 04:22:36;;;;;;;4.32;2.55;;;7.50;99.90;;;;;;5058142;28;20048;-88
2023/03/17 04:25:01;;;;;;;5.28;2.78;;;7.50;99.90;;;;;;5054716;28;20043;-88
2023/03/17 04:27:27;;;;;;;5.63;2.63;;;7.50;99.90;;;;;;5045848;28;20044;-88
2023/03/17 04:29:53;;;;;;;3.28;2.30;;;7.50;99.90;;;;;;5070971;28;20032;-88
2023/03/17 04:32:19;;;;;;;4.75;3.10;;;7.50;99.90;;;;;;5037952;28;20047;-90
2023/03/17 04:34:45;;;;;;;5.10;2.78;;;7.50;99.90;;;;;;5068621;28;20048;-88
2023/03/17 04:37:11;;;;;;;4.05;2.50;;;7.50;99.90;;;;;;5054359;28;20066;-88
2023/03/17 04:39:37;;;;;;;4.88;2.90;;;7.50;99.90;;;;;;5060613;28;20058;-88
2023/03/17 04:42:04;;;;;;;8.82;2.63;;;7.50;99.90;;;;;;5070552;28;20047;-87
2023/03/17 04:44:30;;;;;;;4.95;2.60;;;7.50;99.90;;;;;;5059115;28;20048;-87
2023/03/17 04:46:55;;;;;;;3.63;2.42;;;7.50;99.90;;;;;;5086023;28;20126;-86
2023/03/17 04:49:21;;;;;;;4.57;2.90;;;7.50;99.90;;;;;;5037546;28;20044;-88
2023/03/17 04:51:47;;;;;;;3.40;2.42;;;7.40;99.90;;;;;;5052710;28;20066;-87
2023/03/17 04:54:12;;;;;;;4.68;2.55;;;7.50;99.90;;;;;;5070254;28;20082;-86
2023/03/17 04:56:38;;;;;;;6.55;2.72;;;7.40;99.90;;;;;;5053482;28;20052;-88
2023/03/17 04:59:04;;;;;;;5.32;2.92;;;7.50;99.90;;;;;;5025970;28;20051;-88
2023/03/17 05:01:30;;;;;;;6.13;2.85;;;7.50;99.90;;;;;;5087112;28;20032;-87
2023/03/17 05:03:56;;;;;;;4.55;3.03;;;7.40;99.90;;;;;;5071760;28;20396;-88
2023/03/17 05:06:21;;;;;;;4.53;2.60;;;7.40;99.90;;;;;;5044212;28;20059;-87
2023/03/17 05:08:47;;;;;;;3.72;2.67;;;7.40;99.90;;;;;;5073470;28;20078;-88
2023/03/17 05:11:14;;;;;;;6.68;2.83;;;7.40;99.90;;;;;;5054240;28;20051;-88
2023/03/17 05:13:40;;;;;;;5.15;3.10;;;7.40;99.90;;;;;;5048462;28;20098;-88
2023/03/17 05:16:07;;;;;;;6.03;3.40;;;7.40;99.90;;;;;;5065112;28;20032;-88
2023/03/17 05:18:33;;;;;;;4.28;3.10;;;7.40;99.90;;;;;;5087565;28;20302;-87
2023/03/17 05:20:59;;;;;;;3.75;2.55;;;7.40;99.90;;;;;;5053227;28;20076;-86
2023/03/17 05:23:25;;;;;;;5.95;3.10;;;7.50;99.90;;;;;;5051624;28;20063;-86
2023/03/17 05:25:51;;;;;;;8.50;2.70;;;7.50;99.90;;;;;;5067360;28;20052;-86
2023/03/17 05:28:19;;;;;;;6.22;2.72;;;7.50;99.90;;;;;;5045266;28;20057;-87
2023/03/17 05:30:46;;;;;;;4.75;2.55;;;7.50;99.90;;;;;;5056621;28;20043;-88
2023/03/17 05:33:13;;;;;;;6.55;3.25;;;7.50;99.90;;;;;;5035958;28;20056;-88
2023/03/17 05:35:40;;;;;;;5.55;3.15;;;7.60;99.90;;;;;;5073276;28;20048;-87
2023/03/17 05:38:07;;;;;;;6.78;3.08;;;7.50;99.90;;;;;;5069281;28;20058;-87
2023/03/17 05:40:34;;;;;;;4.07;2.70;;;7.60;99.90;;;;;;5070381;28;20036;-87
2023/03/17 05:43:00;;;;;;;5.80;2.75;;;7.60;99.90;;;;;;5050993;28;20154;-88
2023/03/17 05:45:27;;;;;;;4.28;2.60;;;7.50;99.90;;;;;;5056674;28;20047;-87
2023/03/17 05:47:53;;;;;;;5.00;2.72;;;7.50;99.90;;;;;;5041003;28;20049;-88
2023/03/17 05:50:18;;;;;;;3.50;2.38;;;7.50;99.90;;;;;;5054006;28;20067;-88
2023/03/17 05:52:44;;;;;;;5.68;2.70;;;7.40;99.90;;;;;;5056362;28;20044;-87
2023/03/17 05:55:10;;;;;;;4.78;3.15;;;7.40;99.90;;;;;;5062139;28;20665;-86
2023/03/17 05:57:36;;;;;;;4.82;2.58;;;7.40;99.90;;;;;;5070877;28;20039;-87
2023/03/17 06:00:04;;;;;;;5.45;2.65;;;7.40;99.90;;;;;;5038281;28;20043;-87
2023/03/17 06:02:30;;;;;;;4.65;2.88;;;7.40;99.90;;;;;;5067762;28;20063;-85
2023/03/17 06:04:56;;;;;;;5.68;3.08;;;7.40;99.90;;;;;;5055110;28;20044;-87
2023/03/17 06:07:22;;;;;;;7.68;3.67;;;7.40;99.90;;;;;;5072624;28;20036;-85
2023/03/17 06:09:48;;;;;;;4.97;2.50;;;7.40;99.90;;;;;;5049455;28;20075;-87
2023/03/17 06:12:13;;;;;;;6.30;3.00;;;7.30;99.90;;;;;;5027643;28;20283;-88
2023/03/17 06:14:39;;;;;;;6.93;3.53;;;7.40;99.90;;;;;;5048592;28;20256;-87
2023/03/17 06:17:05;;;;;;;6.03;2.90;;;7.40;99.90;;;;;;5062913;28;20047;-87
2023/03/17 06:19:30;;;;;;;5.47;3.08;;;7.50;99.90;;;;;;5056114;28;20055;-86
2023/03/17 06:21:56;;;;;;;4.72;2.80;;;7.50;99.90;;;;;;5056396;28;20051;-88
2023/03/17 06:24:22;;;;;;;6.00;3.28;;;7.60;99.90;;;;;;5073001;28;20048;-86
2023/03/17 06:26:47;;;;;;;5.18;3.00;;;7.60;99.90;;;;;;5040868;28;20135;-89
2023/03/17 06:29:13;;;;;;;6.30;3.00;;;7.60;99.90;;;;;;5071130;28;20354;-89
2023/03/17 06:31:39;;;;;;;3.95;3.17;;;7.70;99.90;;;;;;5072578;28;20475;-89
2023/03/17 06:34:05;;;;;;;5.18;3.25;;;7.70;99.90;;;;;;5045031;28;20041;-91
2023/03/17 06:36:32;;;;;;;5.68;3.17;;;7.70;99.90;;;;;;5065018;28;20163;-86
2023/03/17 06:38:59;;;;;;;6.18;3.13;;;7.80;99.90;;;;;;5056050;28;20060;-86
2023/03/17 06:41:25;;;;;;;7.00;3.30;;;7.80;99.90;;;;;;5074235;28;20139;-87
2023/03/17 06:43:51;;;;;;;7.00;3.15;;;7.90;99.90;;;;;;5060655;28;20564;-86
2023/03/17 06:46:17;;;;;;;5.43;2.90;;;7.90;99.90;;;;;;5064904;28;20047;-84
2023/03/17 06:48:43;;;;;;;4.55;3.15;;;7.90;99.90;;;;;;5057999;28;20040;-84
2023/03/17 06:51:09;;;;;;;5.10;2.78;;;7.90;99.90;;;;;;5042406;28;20056;-86
2023/03/17 06:53:36;;;;;;;5.55;3.05;;;7.90;99.90;;;;;;5021052;28;20051;-86
2023/03/17 06:56:03;;;;;;;6.22;3.00;;;8.00;99.90;;;;;;5056339;28;20040;-86
2023/03/17 06:58:29;;;;;;;5.93;3.10;;;8.00;99.90;;;;;;5060908;28;20123;-86
2023/03/17 07:00:55;;;;;;;5.65;3.35;;;8.00;99.90;;;;;;5056511;28;20083;-86
2023/03/17 07:03:22;;;;;;;5.40;2.88;;;8.00;99.90;;;;;;5069118;28;20094;-86
2023/03/17 07:05:48;;;;;;;5.57;2.60;;;8.10;99.90;;;;;;5079743;28;20255;-86
2023/03/17 07:08:14;;;;;;;4.80;2.78;;;8.10;99.90;;;;;;5063349;28;20058;-86
2023/03/17 07:10:42;;;;;;;9.00;3.67;;;8.10;99.90;;;;;;5054802;28;20040;-84
2023/03/17 07:13:09;;;;;;;5.10;2.95;;;8.20;99.90;;;;;;5072522;28;20048;-84
2023/03/17 07:15:36;;;;;;;5.82;2.63;;;8.30;99.90;;;;;;5077433;28;20048;-86
2023/03/17 07:18:03;;;;;;;5.13;3.17;;;8.30;99.90;;;;;;5080195;28;20035;-91
2023/03/17 07:20:29;;;;;;;6.40;3.20;;;8.40;99.90;;;;;;5037811;28;20048;-87
2023/03/17 07:22:55;;;;;;;6.35;3.20;;;8.40;99.90;;;;;;5051644;28;20044;-92
2023/03/17 07:25:21;;;;;;;8.30;3.65;;;8.50;99.90;;;;;;5054075;28;20036;-91
2023/03/17 07:27:47;;;;;;;7.65;3.88;;;8.60;99.90;;;;;;5054330;28;20066;-91
2023/03/17 07:30:17;;;;;;;8.98;4.10;;;8.60;99.90;;;;;;5048454;28;20044;-93
2023/03/17 07:32:44;;;;;;;9.43;3.65;;;8.60;99.90;;;;;;5055303;28;20080;-92
2023/03/17 07:35:09;;;;;;;8.75;4.13;;;8.70;99.90;;;;;;5049596;28;20070;-92
2023/03/17 07:37:35;;;;;;;7.05;3.63;;;8.70;99.90;;;;;;5064352;28;20485;-93
2023/03/17 07:40:01;;;;;;;9.82;5.00;;;8.70;99.90;;;;;;5072801;28;20073;-92
2023/03/17 07:42:27;;;;;;;9.25;4.63;;;8.70;99.90;;;;;;5073641;28;20048;-94
2023/03/17 07:44:53;;;;;;;7.50;4.65;;;8.70;99.90;;;;;;5089567;28;20170;-92
2023/03/17 07:47:19;;;;;;;6.70;3.97;;;8.80;99.90;;;;;;5040017;28;20481;-91
2023/03/17 07:49:45;;;;;;;13.30;5.30;;;8.90;99.90;;;;;;5069688;28;20048;-92
2023/03/17 07:52:11;;;;;;;14.88;6.28;;;9.00;99.90;;;;;;5041092;28;20640;-92
2023/03/17 07:54:38;;;;;;;8.73;4.35;;;9.10;99.90;;;;;;5083563;28;20187;-93
2023/03/17 07:57:05;;;;;;;6.75;3.55;;;9.20;99.90;;;;;;5058869;28;20526;-91
2023/03/17 07:59:31;;;;;;;7.32;3.78;;;9.30;99.90;;;;;;5058163;28;20078;-91
2023/03/17 08:01:58;;;;;;;8.43;4.10;;;9.40;82.00;;;;;;5068513;28;20489;-93
2023/03/17 08:04:25;;;;;;;12.25;4.65;;;9.50;84.50;;;;;;5062027;28;20048;-90
2023/03/17 08:06:51;;;;;;;10.65;4.45;;;9.60;61.40;;;;;;5053742;28;20440;-92
2023/03/17 08:09:16;;;;;;;5.97;3.85;;;9.70;46.70;;;;;;5067758;28;20043;-93
2023/03/17 08:11:42;;;;;;;6.88;3.90;;;9.80;38.60;;;;;;5038780;28;20047;-92
2023/03/17 08:14:08;;;;;;;8.55;4.22;;;10.00;37.20;;;;;;5037756;28;20083;-94
2023/03/17 08:16:34;;;;;;;6.45;3.72;;;10.20;29.90;;;;;;5036775;28;20067;-91
2023/03/17 08:18:59;;;;;;;5.55;3.20;;;10.30;23.60;;;;;;5052009;28;20065;-95
2023/03/17 08:21:25;;;;;;;7.25;3.00;;;10.40;14.80;;;;;;5071635;28;20048;-93
2023/03/17 08:23:54;;;;;;;4.88;3.33;;;10.50;6.70;;;;;;5055198;28;20036;-93
2023/03/17 08:26:21;;;;;;;6.32;3.35;;;10.50;1.00;;;;;;5078751;28;20044;-92
2023/03/17 08:28:47;;;;;;;5.53;3.25;;;10.50;1.00;;;;;;5041037;28;20114;-93
2023/03/17 08:31:16;;;;;;;4.53;3.30;;;10.60;1.00;;;;;;5065139;28;20039;-92
2023/03/17 08:33:44;;;;;;;6.97;3.10;;;10.60;1.00;;;;;;5054009;28;20052;-88
2023/03/17 08:36:11;;;;;;;5.78;3.38;;;10.60;1.00;;;;;;5036776;28;20477;-93
2023/03/17 08:38:40;;;;;;;8.60;4.60;;;10.70;1.00;;;;;;5039046;28;20477;-94
2023/03/17 08:41:09;;;;;;;12.52;7.25;;;10.70;1.00;;;;;;5055714;28;20056;-93
2023/03/17 08:43:36;;;;;;;4.40;3.30;;;10.80;1.00;;;;;;5071551;28;20069;-93
2023/03/17 08:46:15;;;;;;;8.15;3.53;;;10.90;1.00;;;;;;5030553;28;20036;-91
2023/03/17 08:48:42;;;;;;;7.35;3.90;;;11.00;1.00;;;;;;5060979;28;20164;-88
2023/03/17 08:51:08;;;;;;;7.70;3.33;;;11.20;1.00;;;;;;5040037;28;20049;-92
2023/03/17 08:53:34;;;;;;;4.57;3.28;;;11.30;1.00;;;;;;5067957;28;20056;-93
2023/03/17 08:56:01;;;;;;;7.97;4.30;;;11.40;1.00;;;;;;5062419;28;20033;-94
2023/03/17 08:58:27;;;;;;;8.10;4.07;;;11.50;1.00;;;;;;5042628;28;20055;-91
2023/03/17 09:00:52;;;;;;;7.65;3.72;;;11.60;1.00;;;;;;5055338;28;20485;-92
2023/03/17 09:03:19;;;;;;;6.15;4.18;;;11.60;1.00;;;;;;5059337;28;20044;-93
2023/03/17 09:05:46;;;;;;;4.97;3.20;;;11.60;1.00;;;;;;5061997;28;20056;-86
2023/03/17 09:08:13;;;;;;;6.38;3.40;;;11.60;1.00;;;;;;5055005;28;20059;-91
2023/03/17 09:10:38;;;;;;;6.10;3.60;;;11.50;1.00;;;;;;5061746;28;20056;-93
2023/03/17 09:13:05;;;;;;;5.05;3.30;;;11.50;1.00;;;;;;5038345;28;20098;-92
2023/03/17 09:15:32;;;;;;;5.07;3.55;;;11.50;1.00;;;;;;5037974;28;20242;-91
2023/03/17 09:17:58;;;;;;;3.83;3.20;;;11.50;1.00;;;;;;5056109;28;20044;-94
2023/03/17 09:20:24;;;;;;;4.82;3.50;;;11.60;1.00;;;;;;5069016;28;20550;-92
2023/03/17 09:22:50;;;;;;;6.55;3.20;;;11.70;1.00;;;;;;5037994;28;20044;-93
2023/03/17 09:25:16;;;;;;;9.98;3.50;;;11.80;1.00;;;;;;5042502;28;20440;-93
2023/03/17 09:27:43;;;;;;;6.38;4.55;;;11.90;1.00;;;;;;5070229;28;20054;-92
2023/03/17 09:30:12;;;;;;;7.22;3.67;;;12.00;1.00;;;;;;5074098;28;20141;-91
2023/03/17 09:32:38;;;;;;;8.00;4.50;;;12.20;1.00;;;;;;5039973;28;20055;-92
2023/03/17 09:35:05;;;;;;;7.28;3.60;;;12.40;1.00;;;;;;5072102;28;20479;-93
2023/03/17 09:37:33;;;;;;;6.18;3.50;;;12.60;1.00;;;;;;5074127;28;20113;-91
2023/03/17 09:39:59;;;;;;;6.82;4.10;;;12.80;1.00;;;;;;5091151;28;20064;-92
2023/03/17 09:42:43;;;;;;;4.93;3.63;;;13.00;1.00;;;;;;5046078;28;20044;-93
2023/03/17 09:45:15;;;;;;;6.38;3.30;;;13.20;1.00;;;;;;5057612;28;20052;-92
2023/03/17 09:47:59;;;;;;;5.03;3.33;;;13.30;1.00;;;;;;5075716;28;20045;-93
2023/03/17 09:50:29;;;;;;;5.40;3.45;;;13.30;1.00;;;;;;5070430;28;20775;-93
2023/03/17 09:52:57;;;;;;;6.45;3.60;;;13.40;1.00;;;;;;5050624;28;20562;-92
2023/03/17 09:55:31;;;;;;;5.03;2.88;;;13.50;1.00;;;;;;5058019;28;20048;-92
2023/03/17 09:57:59;;;;;;;8.20;3.80;;;13.60;1.00;;;;;;5085280;28;20477;-91
2023/03/17 10:00:28;;;;;;;10.98;3.60;;;13.80;1.00;;;;;;5052746;28;20067;-92
2023/03/17 10:02:55;;;;;;;6.53;3.20;;;14.00;1.00;;;;;;5041685;28;20127;-87
2023/03/17 10:05:26;;;;;;;4.45;3.13;;;14.00;1.00;;;;;;5039056;28;20059;-92
2023/03/17 10:08:13;;;;;;;8.48;3.58;;;14.10;1.00;;;;;;5040027;28;20098;-93
2023/03/17 10:10:49;;;;;;;5.53;3.33;;;14.20;1.00;;;;;;5056468;28;20690;-92
2023/03/17 10:13:27;;;;;;;6.72;4.45;;;14.40;1.00;;;;;;5072762;28;20047;-92
2023/03/17 10:16:07;;;;;;;6.45;4.10;;;14.60;1.00;;;;;;5045470;28;20041;-88
2023/03/17 10:18:52;;;;;;;8.45;4.20;;;14.80;1.00;;;;;;5040219;28;20138;-92
2023/03/17 10:21:23;;;;;;;8.48;4.43;;;15.00;1.00;;;;;;5079493;28;20051;-93
2023/03/17 10:23:51;;;;;;;5.78;3.70;;;15.20;1.00;;;;;;5065351;28;20059;-92
2023/03/17 10:26:30;;;;;;;6.15;3.33;;;15.30;1.00;;;;;;5058333;28;20123;-91
2023/03/17 10:28:58;;;;;;;5.65;3.50;;;15.50;1.00;;;;;;5075413;28;20637;-87
2023/03/17 10:31:34;;;;;;;8.40;3.83;;;15.50;1.00;;;;;;5068017;28;20088;-90
2023/03/17 10:34:12;;;;;;;4.00;3.38;;;15.70;1.00;;;;;;5073401;28;20551;-93
2023/03/17 10:36:41;;;;;;;7.97;4.05;;;15.90;1.00;;;;;;5066736;28;20064;-93
2023/03/17 10:39:13;;;;;;;5.63;4.32;;;15.90;1.00;;;;;;5070663;28;20135;-91
2023/03/17 10:41:46;;;;;;;6.07;3.78;;;16.00;1.00;;;;;;5071140;28;20053;-92
2023/03/17 10:44:41;;;;;;;5.35;3.60;;;16.10;1.00;;;;;;5071921;28;20516;-90
2023/03/17 10:47:28;;;;;;;7.70;3.63;;;16.30;1.00;;;;;;5070283;28;20058;-92
2023/03/17 10:49:56;;;;;;;5.25;3.58;;;16.50;1.00;;;;;;5043160;28;20044;-92
2023/03/17 10:52:29;;;;;;;6.55;4.10;;;16.70;1.00;;;;;;5064535;28;20051;-91
2023/03/17 10:54:59;;;;;;;5.20;3.63;;;16.90;1.00;;;;;;5071303;28;20048;-89
2023/03/17 10:57:26;;;;;;;7.38;3.80;;;17.20;1.00;;;;;;5073404;28;20067;-93
2023/03/17 10:59:54;;;;;;;6.03;3.90;;;17.70;1.00;;;;;;5056522;28;20055;-91
2023/03/17 11:02:26;;;;;;;5.85;3.70;;;18.30;1.00;;;;;;5091318;28;20406;-93
2023/03/17 11:05:02;;;;;;;8.35;3.67;;;18.70;1.00;;;;;;5056901;28;20063;-91
2023/03/17 11:07:37;;;;;;;;;;;19.10;1.00;;;;;;5058176;28;20112;-93
2023/03/17 11:10:20;;;;;;;7.07;3.65;;;19.80;1.00;;;;;;5070097;28;19974;-88
2023/03/17 11:12:49;;;;;;;7.35;4.50;;;20.30;1.00;;;;;;5038142;28;20109;-91
2023/03/17 11:15:16;;;;;;;8.02;4.82;;;20.40;1.00;;;;;;5090593;28;20040;-90
2023/03/17 11:17:45;;;;;;;7.10;3.70;;;20.50;1.00;;;;;;5071036;28;20054;-92
2023/03/17 11:20:39;;;;;;;8.82;4.68;;;21.20;1.00;;;;;;5073707;28;20036;-94
2023/03/17 11:23:16;;;;;;;9.48;4.32;;;22.00;1.00;;;;;;5072900;28;20113;-87
2023/03/17 11:25:48;;;;;;;8.30;4.75;;;23.10;1.00;;;;;;5073310;28;20052;-90
2023/03/17 11:28:26;;;;;;;7.07;3.90;;;23.90;1.00;;;;;;5040629;28;20054;-92
2023/03/17 11:31:14;;;;;;;8.18;4.85;;;23.50;1.00;;;;;;5072743;28;20048;-92
2023/03/17 11:33:51;;;;;;;6.10;3.50;;;23.30;1.00;;;;;;5042443;28;20127;-93
2023/03/17 11:36:53;;;;;;;6.60;3.55;;;23.50;1.00;;;;;;5045605;28;20055;-92
2023/03/17 11:39:56;;;;;;;5.95;3.30;;;23.70;1.00;;;;;;5058430;28;20080;-90
2023/03/17 11:42:43;;;;;;;5.07;3.15;;;24.10;1.00;;;;;;5011186;28;20074;-92
2023/03/17 11:45:31;;;;;;;6.38;3.40;;;24.20;1.00;;;;;;5067937;28;20667;-91
2023/03/17 11:48:09;;;;;;;7.25;3.60;;;24.10;1.00;;;;;;5081444;28;20400;-91
2023/03/17 11:50:38;;;;;;;6.10;3.70;;;24.00;1.00;;;;;;5060822;28;20056;-91
2023/03/17 11:53:23;;;;;;;5.05;3.28;;;23.90;1.00;;;;;;5044028;28;20058;-91
2023/03/17 11:56:29;;;;;;;5.53;3.60;;;23.40;1.00;;;;;;5078901;28;20087;-93
2023/03/17 11:59:00;;;;;;;4.80;3.20;;;22.90;1.00;;;;;;5045673;28;20136;-92
2023/03/17 12:01:32;;;;;;;6.15;3.95;;;23.20;1.00;;;;;;5054404;28;20151;-92
2023/03/17 12:04:08;;;;;;;5.72;4.00;;;23.80;1.00;;;;;;5047667;28;20082;-90
2023/03/17 12:06:40;;;;;;;7.82;3.58;;;24.10;1.00;;;;;;5053861;28;20052;-91
2023/03/17 12:09:25;;;;;;;7.25;3.65;;;24.40;1.00;;;;;;5048736;28;20496;-93
2023/03/17 12:11:52;;;;;;;4.78;3.40;;;24.80;1.00;;;;;;5077678;28;20048;-92
2023/03/17 12:14:25;;;;;;;6.03;3.60;;;25.10;1.00;;;;;;5042117;28;20490;-94
2023/03/17 12:17:20;;;;;;;6.82;4.22;;;24.50;1.00;;;;;;5052790;28;20406;-91
2023/03/17 12:19:52;;;;;;;5.95;3.65;;;23.80;1.00;;;;;;5059240;28;20052;-93
2023/03/17 12:22:25;;;;;;;5.40;4.00;;;22.20;1.00;;;;;;5059505;28;20052;-91
2023/03/17 12:25:19;;;;;;;5.70;3.78;;;21.20;1.00;;;;;;5053229;28;20123;-91
2023/03/17 12:27:54;;;;;;;7.07;3.75;;;20.70;1.00;;;;;;5052971;28;20457;-92
2023/03/17 12:30:30;;;;;;;4.88;3.88;;;20.90;1.00;;;;;;5052024;28;20076;-91
2023/03/17 12:33:20;;;;;;;6.05;4.15;;;21.30;1.00;;;;;;5044036;28;20130;-93
2023/03/17 12:35:46;;;;;;;7.38;4.57;;;21.20;1.00;;;;;;5055333;28;20135;-91
2023/03/17 12:38:28;;;;;;;5.63;4.22;;;20.90;1.00;;;;;;5072015;28;20135;-93
2023/03/17 12:41:14;;;;;;;7.30;4.50;;;20.60;1.00;;;;;;5060466;28;20062;-90
2023/03/17 12:44:34;;;;;;;6.77;4.67;;;20.00;1.00;;;;;;5068877;28;20094;-92
2023/03/17 12:47:13;;;;;;;7.63;4.88;;;19.20;1.00;;;;;;4996245;28;20079;-93
2023/03/17 12:49:48;;;;;;;6.80;4.47;;;18.50;1.00;;;;;;5061730;28;20051;-92
2023/03/17 12:52:37;;;;;;;7.53;4.45;;;18.10;1.00;;;;;;5056005;28;20037;-94
2023/03/17 12:55:08;;;;;;;6.90;4.43;;;17.70;1.00;;;;;;5055291;28;20086;-92
2023/03/17 12:57:46;;;;;;;6.18;4.47;;;17.40;1.00;;;;;;5055232;28;20046;-91
2023/03/17 13:00:24;;;;;;;6.70;4.57;;;17.20;1.00;;;;;;5071973;28;20049;-92
2023/03/17 13:03:23;;;;;;;7.60;4.80;;;17.10;1.00;;;;;;5038141;28;20080;-93
2023/03/17 13:05:53;;;;;;;7.32;4.82;;;17.20;1.00;;;;;;5051977;28;20102;-91
2023/03/17 13:08:24;;;;;;;7.80;5.00;;;17.60;1.00;;;;;;5045072;28;20051;-89
2023/03/17 13:10:50;;;;;;;7.72;5.18;;;18.10;1.00;;;;;;5073678;28;20127;-90